Time;durP1;ratioP1;P1;durP2;ratioP2;P2;SDS_P1;SDS_P2;PMS_P1;PMS_P2;Temp;Humidity;BMP_temperature;BMP_pressure;BME280_temperature;BME280_humidity;BME280_pressure;Samples;Min_cycle;Max_cycle;Signal;HPM_P1;HPM_P2
2021/04/28 00:02:17;;;;;;;30.40;21.40;;;;;;;;;;5013644;28;20166;-87
2021/04/28 00:04:42;;;;;;;32.70;22.20;;;;;;;;;;5013777;28;20173;-86
2021/04/28 00:07:07;;;;;;;30.67;20.73;;;;;;;;;;5013477;28;20539;-86
2021/04/28 00:09:33;;;;;;;33.27;21.67;;;;;;;;;;5014016;28;20165;-86
2021/04/28 00:11:58;;;;;;;33.03;22.37;;;;;;;;;;5013664;28;20616;-86
2021/04/28 00:14:24;;;;;;;28.97;20.87;;;;;;;;;;5013789;28;20173;-85
2021/04/28 00:16:49;;;;;;;32.90;22.70;;;;;;;;;;5013215;28;20256;-86
2021/04/28 00:19:15;;;;;;;33.57;23.10;;;;;;;;;;5013947;28;20172;-86
2021/04/28 00:21:40;;;;;;;40.97;24.73;;;;;;;;;;5013477;28;20176;-86
2021/04/28 00:24:06;;;;;;;37.60;22.77;;;;;;;;;;5013599;28;20211;-85
2021/04/28 00:26:31;;;;;;;35.97;22.13;;;;;;;;;;5013195;28;20177;-85
2021/04/28 00:28:56;;;;;;;32.30;21.73;;;;;;;;;;5013165;28;20200;-85
2021/04/28 00:31:22;;;;;;;35.10;22.60;;;;;;;;;;5013437;28;20165;-85
2021/04/28 00:33:47;;;;;;;36.77;23.30;;;;;;;;;;5013743;28;20196;-85
2021/04/28 00:36:12;;;;;;;38.60;23.20;;;;;;;;;;5013354;28;20602;-85
2021/04/28 00:38:38;;;;;;;37.30;22.80;;;;;;;;;;5013050;28;20173;-85
2021/04/28 00:41:07;;;;;;;41.40;25.07;;;;;;;;;;5013120;28;20165;-86
2021/04/28 00:43:33;;;;;;;38.03;27.10;;;;;;;;;;5013317;28;20252;-86
2021/04/28 00:46:00;;;;;;;36.93;25.73;;;;;;;;;;5012926;28;20208;-86
2021/04/28 00:48:25;;;;;;;40.40;25.93;;;;;;;;;;5012990;28;20184;-86
2021/04/28 00:50:51;;;;;;;35.17;22.67;;;;;;;;;;5013261;28;20169;-87
2021/04/28 00:53:18;;;;;;;31.30;23.53;;;;;;;;;;5013435;28;20177;-86
2021/04/28 00:55:43;;;;;;;36.57;22.80;;;;;;;;;;5012716;28;20170;-86
2021/04/28 00:58:09;;;;;;;31.37;22.57;;;;;;;;;;5012654;28;20173;-86
2021/04/28 01:00:35;;;;;;;34.10;21.37;;;;;;;;;;5012894;28;20169;-86
2021/04/28 01:03:00;;;;;;;29.07;20.07;;;;;;;;;;5013104;28;20630;-86
2021/04/28 01:05:26;;;;;;;32.30;23.40;;;;;;;;;;5012947;28;20173;-86
2021/04/28 01:07:51;;;;;;;33.53;22.93;;;;;;;;;;5012952;28;20177;-87
2021/04/28 01:10:18;;;;;;;37.27;23.13;;;;;;;;;;5013282;28;20260;-86
2021/04/28 01:12:44;;;;;;;32.83;22.60;;;;;;;;;;5012743;28;20174;-86
2021/04/28 01:15:11;;;;;;;31.17;22.00;;;;;;;;;;5012600;28;20726;-86
2021/04/28 01:17:37;;;;;;;36.33;23.90;;;;;;;;;;5012447;28;20645;-86
2021/04/28 01:20:03;;;;;;;35.80;23.20;;;;;;;;;;5012711;28;20165;-86
2021/04/28 01:22:33;;;;;;;35.00;22.67;;;;;;;;;;5013202;28;20192;-86
2021/04/28 01:24:58;;;;;;;38.50;24.33;;;;;;;;;;5012761;28;20169;-86
2021/04/28 01:27:26;;;;;;;37.47;24.17;;;;;;;;;;5013059;28;20173;-87
2021/04/28 01:29:51;;;;;;;36.63;23.60;;;;;;;;;;5012928;28;20711;-85
2021/04/28 01:32:19;;;;;;;32.83;22.90;;;;;;;;;;5012649;28;20256;-85
2021/04/28 01:34:45;;;;;;;34.70;22.53;;;;;;;;;;5012504;28;20173;-85
2021/04/28 01:37:10;;;;;;;38.13;24.03;;;;;;;;;;5012469;28;20201;-85
2021/04/28 01:39:36;;;;;;;36.50;23.40;;;;;;;;;;5013025;28;20235;-85
2021/04/28 01:42:02;;;;;;;32.67;21.67;;;;;;;;;;5012751;28;20512;-85
2021/04/28 01:44:27;;;;;;;32.93;22.93;;;;;;;;;;5012781;28;20527;-85
2021/04/28 01:46:55;;;;;;;36.87;25.93;;;;;;;;;;5012995;28;20173;-85
2021/04/28 01:49:21;;;;;;;39.80;24.93;;;;;;;;;;5012769;28;20170;-85
2021/04/28 01:51:47;;;;;;;47.77;30.53;;;;;;;;;;5012536;28;20240;-84
2021/04/28 01:54:16;;;;;;;44.00;29.17;;;;;;;;;;5012651;28;20515;-86
2021/04/28 01:56:42;;;;;;;37.47;27.07;;;;;;;;;;5012424;28;20205;-85
2021/04/28 01:59:08;;;;;;;36.00;23.87;;;;;;;;;;5012581;28;20177;-85
2021/04/28 02:01:34;;;;;;;33.93;21.37;;;;;;;;;;5012388;28;20635;-85
2021/04/28 02:03:59;;;;;;;32.63;21.30;;;;;;;;;;5012280;28;20165;-85
2021/04/28 02:06:25;;;;;;;35.73;22.00;;;;;;;;;;5012879;28;20169;-85
2021/04/28 02:08:50;;;;;;;33.07;21.30;;;;;;;;;;5015068;28;20169;-85
2021/04/28 02:11:15;;;;;;;34.37;21.80;;;;;;;;;;5015728;28;20382;-85
2021/04/28 02:13:43;;;;;;;32.30;20.50;;;;;;;;;;5015661;28;20623;-85
2021/04/28 02:16:09;;;;;;;29.63;20.63;;;;;;;;;;5015682;28;20237;-86
2021/04/28 02:18:35;;;;;;;27.17;20.23;;;;;;;;;;5015890;28;20184;-86
2021/04/28 02:21:03;;;;;;;26.23;18.23;;;;;;;;;;5016047;28;20656;-86
2021/04/28 02:23:30;;;;;;;29.27;19.37;;;;;;;;;;5015906;28;20180;-86
2021/04/28 02:25:56;;;;;;;30.63;20.27;;;;;;;;;;5016094;28;20169;-85
2021/04/28 02:28:21;;;;;;;31.97;20.37;;;;;;;;;;5015521;28;20209;-85
2021/04/28 02:30:47;;;;;;;28.50;19.50;;;;;;;;;;5015480;28;20204;-85
2021/04/28 02:33:12;;;;;;;29.20;19.37;;;;;;;;;;5015643;28;20180;-85
2021/04/28 02:35:37;;;;;;;26.90;17.77;;;;;;;;;;5015572;28;20256;-86
2021/04/28 02:38:05;;;;;;;29.43;18.43;;;;;;;;;;5015198;28;20213;-86
2021/04/28 02:40:30;;;;;;;24.70;16.97;;;;;;;;;;5015278;28;20247;-86
2021/04/28 02:42:56;;;;;;;26.00;17.50;;;;;;;;;;5015481;28;20204;-85
2021/04/28 02:45:22;;;;;;;30.67;18.20;;;;;;;;;;5015376;28;20498;-85
2021/04/28 02:47:49;;;;;;;28.63;17.47;;;;;;;;;;5015127;28;20188;-85
2021/04/28 02:50:16;;;;;;;31.43;17.60;;;;;;;;;;5014940;28;20620;-86
2021/04/28 02:52:43;;;;;;;29.57;18.17;;;;;;;;;;5015254;28;20605;-86
2021/04/28 02:55:08;;;;;;;31.93;17.70;;;;;;;;;;5014910;28;20170;-86
2021/04/28 02:57:34;;;;;;;28.47;17.60;;;;;;;;;;5015100;28;20304;-86
2021/04/28 03:00:00;;;;;;;25.13;17.93;;;;;;;;;;5015629;28;20177;-86
2021/04/28 03:02:26;;;;;;;27.63;18.47;;;;;;;;;;5015210;28;20173;-85
2021/04/28 03:04:51;;;;;;;32.23;19.13;;;;;;;;;;5015153;28;20693;-86
2021/04/28 03:07:16;;;;;;;36.23;22.20;;;;;;;;;;5015378;28;20273;-86
2021/04/28 03:09:42;;;;;;;31.00;20.70;;;;;;;;;;5015287;28;20517;-85
2021/04/28 03:12:09;;;;;;;38.73;21.30;;;;;;;;;;5014665;28;20259;-86
2021/04/28 03:14:34;;;;;;;35.07;20.23;;;;;;;;;;5014829;28;20227;-85
2021/04/28 03:16:59;;;;;;;37.00;20.30;;;;;;;;;;5014898;28;20236;-85
2021/04/28 03:19:25;;;;;;;30.83;20.10;;;;;;;;;;5013964;28;20169;-85
2021/04/28 03:21:50;;;;;;;31.13;19.63;;;;;;;;;;5014368;28;20205;-85
2021/04/28 03:24:21;;;;;;;32.57;19.50;;;;;;;;;;5013403;28;20209;-85
2021/04/28 03:26:47;;;;;;;34.73;21.20;;;;;;;;;;5014248;28;20706;-86
2021/04/28 03:29:12;;;;;;;28.90;18.93;;;;;;;;;;5014291;28;20177;-85
2021/04/28 03:31:38;;;;;;;31.60;19.43;;;;;;;;;;5014221;28;20176;-85
2021/04/28 03:34:03;;;;;;;28.60;18.10;;;;;;;;;;5014441;28;20173;-86
2021/04/28 03:36:28;;;;;;;23.17;16.47;;;;;;;;;;5014552;28;20663;-85
2021/04/28 03:38:53;;;;;;;26.27;17.27;;;;;;;;;;5014598;28;20177;-85
2021/04/28 03:41:19;;;;;;;25.10;15.37;;;;;;;;;;5014472;28;20173;-85
2021/04/28 03:43:45;;;;;;;22.37;15.80;;;;;;;;;;5014192;28;20223;-85
2021/04/28 03:46:10;;;;;;;26.23;17.20;;;;;;;;;;5013983;28;20177;-85
2021/04/28 03:48:36;;;;;;;26.57;18.50;;;;;;;;;;5014155;28;20688;-86
2021/04/28 03:51:02;;;;;;;32.30;18.73;;;;;;;;;;5014325;28;20170;-85
2021/04/28 03:53:27;;;;;;;31.67;21.70;;;;;;;;;;5014374;28;20581;-85
2021/04/28 03:55:53;;;;;;;23.53;17.87;;;;;;;;;;5013731;28;20635;-85
2021/04/28 03:58:18;;;;;;;25.03;16.63;;;;;;;;;;5014171;28;20260;-85
2021/04/28 04:00:43;;;;;;;21.03;14.37;;;;;;;;;;5014105;28;20260;-85
2021/04/28 04:03:09;;;;;;;23.00;14.90;;;;;;;;;;5012701;28;20270;-85
2021/04/28 04:05:34;;;;;;;20.23;14.53;;;;;;;;;;5013895;28;20177;-85
2021/04/28 04:07:59;;;;;;;21.07;15.43;;;;;;;;;;5013774;28;20311;-86
2021/04/28 04:10:24;;;;;;;19.67;14.13;;;;;;;;;;5013762;28;20260;-86
2021/04/28 04:12:50;;;;;;;22.73;16.50;;;;;;;;;;5013427;28;20169;-86
2021/04/28 04:15:15;;;;;;;26.50;16.87;;;;;;;;;;5013618;28;20232;-86
2021/04/28 04:17:40;;;;;;;21.00;16.77;;;;;;;;;;5013616;28;20224;-86
2021/04/28 04:20:06;;;;;;;27.37;19.10;;;;;;;;;;5013603;28;20181;-86
2021/04/28 04:22:32;;;;;;;25.63;19.53;;;;;;;;;;5013424;28;20169;-87
2021/04/28 04:24:57;;;;;;;25.23;18.90;;;;;;;;;;5013305;28;20624;-87
2021/04/28 04:27:22;;;;;;;23.03;18.40;;;;;;;;;;5013273;28;20173;-84
2021/04/28 04:29:48;;;;;;;24.10;19.20;;;;;;;;;;5013177;28;20177;-84
2021/04/28 04:32:13;;;;;;;28.33;20.63;;;;;;;;;;5013006;28;20620;-85
2021/04/28 04:34:38;;;;;;;26.33;21.70;;;;;;;;;;5013505;28;20516;-86
2021/04/28 04:37:04;;;;;;;25.45;17.85;;;;;;;;;;5013373;28;20546;-84
2021/04/28 04:39:29;;;;;;;21.80;17.80;;;;;;;;;;5013663;28;20212;-84
2021/04/28 04:41:55;;;;;;;19.38;17.15;;;;;;;;;;5012075;28;20201;-85
2021/04/28 04:44:20;;;;;;;19.65;16.85;;;;;;;;;;5013653;28;20547;-85
2021/04/28 04:46:46;;;;;;;20.35;17.52;;;;;;;;;;5013345;28;20180;-85
2021/04/28 04:49:12;;;;;;;21.95;17.75;;;;;;;;;;5013153;28;20177;-84
2021/04/28 04:51:37;;;;;;;28.02;19.30;;;;;;;;;;5013315;28;20174;-84
2021/04/28 04:54:03;;;;;;;21.35;18.73;;;;;;;;;;5013446;28;20173;-84
2021/04/28 04:56:28;;;;;;;21.90;19.33;;;;;;;;;;5013383;28;20197;-84
2021/04/28 04:58:54;;;;;;;20.95;17.50;;;;;;;;;;5013131;28;20579;-84
2021/04/28 05:01:19;;;;;;;18.60;16.63;;;;;;;;;;5012970;28;20690;-85
2021/04/28 05:03:44;;;;;;;22.45;19.20;;;;;;;;;;5013034;28;20165;-85
2021/04/28 05:06:10;;;;;;;18.77;16.40;;;;;;;;;;5013470;28;20177;-85
2021/04/28 05:08:35;;;;;;;18.98;14.70;;;;;;;;;;5012938;28;20256;-85
2021/04/28 05:11:01;;;;;;;17.55;15.38;;;;;;;;;;5013318;28;20181;-85
2021/04/28 05:13:26;;;;;;;15.93;14.15;;;;;;;;;;5013298;28;20201;-86
2021/04/28 05:15:51;;;;;;;17.42;13.00;;;;;;;;;;5012716;28;20244;-85
2021/04/28 05:18:16;;;;;;;15.27;13.68;;;;;;;;;;5013588;28;20213;-86
2021/04/28 05:20:42;;;;;;;16.75;14.02;;;;;;;;;;5013183;28;20229;-89
2021/04/28 05:23:07;;;;;;;17.52;13.95;;;;;;;;;;5013280;28;20174;-85
2021/04/28 05:25:33;;;;;;;14.90;13.43;;;;;;;;;;5013209;28;20231;-85
2021/04/28 05:27:58;;;;;;;14.57;13.05;;;;;;;;;;5013039;28;20252;-85
2021/04/28 05:30:24;;;;;;;14.45;12.43;;;;;;;;;;5013054;28;20243;-85
2021/04/28 05:32:49;;;;;;;14.05;12.65;;;;;;;;;;5013306;28;20638;-85
2021/04/28 05:35:15;;;;;;;15.63;13.10;;;;;;;;;;5012708;28;20177;-85
2021/04/28 05:37:42;;;;;;;14.48;12.68;;;;;;;;;;5013119;28;20299;-85
2021/04/28 05:40:08;;;;;;;16.65;12.95;;;;;;;;;;5012556;28;20643;-85
2021/04/28 05:42:34;;;;;;;17.35;13.18;;;;;;;;;;5013681;28;20177;-85
2021/04/28 05:44:59;;;;;;;13.85;12.55;;;;;;;;;;5016390;28;20200;-85
2021/04/28 05:47:25;;;;;;;13.95;12.63;;;;;;;;;;5016569;28;20699;-85
2021/04/28 05:49:50;;;;;;;15.70;14.05;;;;;;;;;;5016270;28;20175;-86
2021/04/28 05:52:16;;;;;;;15.85;13.40;;;;;;;;;;5016404;28;20169;-86
2021/04/28 05:54:41;;;;;;;15.15;13.75;;;;;;;;;;5016547;28;20196;-85
2021/04/28 05:57:08;;;;;;;14.43;12.77;;;;;;;;;;5016634;28;20604;-86
2021/04/28 05:59:33;;;;;;;15.85;13.18;;;;;;;;;;5016489;28;20184;-85
2021/04/28 06:01:59;;;;;;;14.55;13.23;;;;;;;;;;5016047;28;20248;-85
2021/04/28 06:04:24;;;;;;;15.88;13.80;;;;;;;;;;5016383;28;20259;-84
2021/04/28 06:06:49;;;;;;;15.30;13.90;;;;;;;;;;5016300;28;20184;-84
2021/04/28 06:09:17;;;;;;;15.43;13.82;;;;;;;;;;5016503;28;20169;-84
2021/04/28 06:11:42;;;;;;;16.23;14.60;;;;;;;;;;5016399;28;20624;-85
2021/04/28 06:14:08;;;;;;;16.30;14.70;;;;;;;;;;5016183;28;20180;-85
2021/04/28 06:16:33;;;;;;;14.40;13.10;;;;;;;;;;5015516;28;20229;-85
2021/04/28 06:18:58;;;;;;;14.80;13.40;;;;;;;;;;5015631;28;20178;-85
2021/04/28 06:21:24;;;;;;;14.15;12.82;;;;;;;;;;5015620;28;20175;-86
2021/04/28 06:23:49;;;;;;;14.02;12.60;;;;;;;;;;5016236;28;20171;-86
2021/04/28 06:26:16;;;;;;;14.38;12.90;;;;;;;;;;5016135;28;20177;-85
2021/04/28 06:28:42;;;;;;;16.02;12.82;;;;;;;;;;5015632;28;20162;-86
2021/04/28 06:31:07;;;;;;;13.93;12.52;;;;;;;;;;5015606;28;20184;-85
2021/04/28 06:33:33;;;;;;;12.95;11.70;;;;;;;;;;5015729;28;20169;-86
2021/04/28 06:35:58;;;;;;;14.40;13.00;;;;;;;;;;5015282;28;20200;-86
2021/04/28 06:38:23;;;;;;;13.85;12.55;;;;;;;;;;5015735;28;20172;-86
2021/04/28 06:40:49;;;;;;;15.25;13.85;;;;;;;;;;5015766;28;20176;-92
2021/04/28 06:43:14;;;;;;;15.30;12.57;;;;;;;;;;5015789;28;20196;-86
2021/04/28 06:45:39;;;;;;;20.75;13.30;;;;;;;;;;5015645;28;20177;-85
2021/04/28 06:48:05;;;;;;;13.98;12.38;;;;;;;;;;5015644;28;20176;-86
2021/04/28 06:50:31;;;;;;;13.00;11.77;;;;;;;;;;5015477;28;20323;-86
2021/04/28 06:52:56;;;;;;;15.18;12.45;;;;;;;;;;5015216;28;20176;-86
2021/04/28 06:55:22;;;;;;;14.10;12.35;;;;;;;;;;5013812;28;20169;-86
2021/04/28 06:57:53;;;;;;;15.40;12.25;;;;;;;;;;5015106;28;20690;-85
2021/04/28 07:00:19;;;;;;;15.75;13.98;;;;;;;;;;5015214;28;20150;-85
2021/04/28 07:02:44;;;;;;;18.73;12.50;;;;;;;;;;5015102;28;20691;-85
2021/04/28 07:05:10;;;;;;;12.63;11.40;;;;;;;;;;5014825;28;20184;-85
2021/04/28 07:07:35;;;;;;;14.95;11.30;;;;;;;;;;5014898;28;20195;-86
2021/04/28 07:10:01;;;;;;;15.48;11.80;;;;;;;;;;5015448;28;20173;-86
2021/04/28 07:12:26;;;;;;;14.88;12.85;;;;;;;;;;5015106;28;20180;-85
2021/04/28 07:14:51;;;;;;;13.75;12.25;;;;;;;;;;5014988;28;20183;-88
2021/04/28 07:17:17;;;;;;;16.17;11.65;;;;;;;;;;5015085;28;20220;-86
2021/04/28 07:19:42;;;;;;;17.95;11.57;;;;;;;;;;5013583;28;20204;-85
2021/04/28 07:22:07;;;;;;;13.93;12.32;;;;;;;;;;5015048;28;20197;-85
2021/04/28 07:24:34;;;;;;;13.63;11.40;;;;;;;;;;5014817;28;20252;-85
2021/04/28 07:26:59;;;;;;;13.00;11.70;;;;;;;;;;5014455;28;20188;-85
2021/04/28 07:29:24;;;;;;;12.70;11.40;;;;;;;;;;5014835;28;20169;-85
2021/04/28 07:31:50;;;;;;;14.05;9.77;;;;;;;;;;5014819;28;20181;-84
2021/04/28 07:34:15;;;;;;;11.52;10.23;;;;;;;;;;5014325;28;20264;-85
2021/04/28 07:36:41;;;;;;;10.15;9.07;;;;;;;;;;5014229;28;20263;-85
2021/04/28 07:39:07;;;;;;;12.13;9.88;;;;;;;;;;5014625;28;20196;-85
2021/04/28 07:41:33;;;;;;;11.20;10.00;;;;;;;;;;5014341;28;20672;-85
2021/04/28 07:43:58;;;;;;;18.60;14.13;;;;;;;;;;5014211;28;20257;-85
2021/04/28 07:46:24;;;;;;;12.25;8.75;;;;;;;;;;5013308;28;20231;-91
2021/04/28 07:48:49;;;;;;;10.00;8.07;;;;;;;;;;5014237;28;20619;-85
2021/04/28 07:51:14;;;;;;;12.15;8.48;;;;;;;;;;5014108;28;20201;-84
2021/04/28 07:53:39;;;;;;;9.95;8.00;;;;;;;;;;5014745;28;20252;-85
2021/04/28 07:56:05;;;;;;;9.27;7.78;;;;;;;;;;5013808;28;20596;-85
2021/04/28 07:58:30;;;;;;;10.63;8.20;;;;;;;;;;5014108;28;20185;-85
2021/04/28 08:00:55;;;;;;;8.80;8.00;;;;;;;;;;5013249;28;20177;-88
2021/04/28 08:03:22;;;;;;;10.23;8.10;;;;;;;;;;5014266;28;20161;-85
2021/04/28 08:05:47;;;;;;;8.85;7.82;;;;;;;;;;5013435;28;20636;-85
2021/04/28 08:08:12;;;;;;;9.75;8.40;;;;;;;;;;5013240;28;20169;-86
2021/04/28 08:10:38;;;;;;;9.27;8.18;;;;;;;;;;5013651;28;20181;-87
2021/04/28 08:13:08;;;;;;;8.98;8.18;;;;;;;;;;5013994;28;20256;-86
2021/04/28 08:15:33;;;;;;;9.43;8.43;;;;;;;;;;5013727;28;20228;-86
2021/04/28 08:17:59;;;;;;;9.23;8.35;;;;;;;;;;5013341;28;20192;-86
2021/04/28 08:20:24;;;;;;;9.47;8.53;;;;;;;;;;5013744;28;20176;-89
2021/04/28 08:22:49;;;;;;;9.63;8.83;;;;;;;;;;5013628;28;20181;-87
2021/04/28 08:25:15;;;;;;;9.13;8.03;;;;;;;;;;5013542;28;20165;-89
2021/04/28 08:27:41;;;;;;;9.70;8.80;;;;;;;;;;5013563;28;20180;-88
2021/04/28 08:30:08;;;;;;;9.73;8.70;;;;;;;;;;5013713;28;20177;-88
2021/04/28 08:32:33;;;;;;;12.63;8.73;;;;;;;;;;5012575;28;20204;-88
2021/04/28 08:34:59;;;;;;;8.87;8.10;;;;;;;;;;5012692;28;20624;-88
2021/04/28 08:37:24;;;;;;;8.97;8.17;;;;;;;;;;5013797;28;20208;-87
2021/04/28 08:39:49;;;;;;;9.60;8.50;;;;;;;;;;5013583;28;20231;-88
2021/04/28 08:42:16;;;;;;;8.93;8.03;;;;;;;;;;5014192;28;20176;-88
2021/04/28 08:44:42;;;;;;;10.47;7.37;;;;;;;;;;5014236;28;20180;-87
2021/04/28 08:47:07;;;;;;;12.17;8.40;;;;;;;;;;5013762;28;20633;-87
2021/04/28 08:49:33;;;;;;;11.97;8.20;;;;;;;;;;5013590;28;20520;-88
2021/04/28 08:51:59;;;;;;;8.57;7.63;;;;;;;;;;5012912;28;20177;-89
2021/04/28 08:54:25;;;;;;;8.57;7.67;;;;;;;;;;5013899;28;20303;-88
2021/04/28 08:56:53;;;;;;;10.13;7.40;;;;;;;;;;5012900;28;20292;-88
2021/04/28 08:59:19;;;;;;;8.40;7.50;;;;;;;;;;5014057;28;20177;-88
2021/04/28 09:01:50;;;;;;;9.60;7.77;;;;;;;;;;5012769;28;20539;-84
2021/04/28 09:04:17;;;;;;;8.70;7.90;;;;;;;;;;5014358;28;20168;-85
2021/04/28 09:06:50;;;;;;;12.47;7.50;;;;;;;;;;5014585;28;20181;-83
2021/04/28 09:09:16;;;;;;;10.77;7.23;;;;;;;;;;5014313;28;20221;-83
2021/04/28 09:11:42;;;;;;;8.57;7.30;;;;;;;;;;5012595;28;20181;-83
2021/04/28 09:14:28;;;;;;;12.87;7.50;;;;;;;;;;5013147;28;20189;-86
2021/04/28 09:16:54;;;;;;;7.53;6.77;;;;;;;;;;5011687;28;20233;-83
2021/04/28 09:19:51;;;;;;;10.73;7.03;;;;;;;;;;5017470;28;20169;-86
2021/04/28 09:22:25;;;;;;;8.73;6.80;;;;;;;;;;5017093;28;20612;-84
2021/04/28 09:24:51;;;;;;;9.87;7.87;;;;;;;;;;5017763;28;20177;-85
2021/04/28 09:27:31;;;;;;;7.50;6.60;;;;;;;;;;5017991;28;20184;-86
2021/04/28 09:29:57;;;;;;;7.47;6.33;;;;;;;;;;5018020;28;20172;-87
2021/04/28 09:32:46;;;;;;;6.63;6.03;;;;;;;;;;5018174;28;20219;-85
2021/04/28 09:35:12;;;;;;;8.17;6.53;;;;;;;;;;5018122;28;20511;-84
2021/04/28 09:37:53;;;;;;;8.80;6.57;;;;;;;;;;5017577;28;20207;-84
2021/04/28 09:40:19;;;;;;;8.90;6.90;;;;;;;;;;5017831;28;20170;-84
2021/04/28 09:42:52;;;;;;;9.27;6.77;;;;;;;;;;5017553;28;20260;-85
2021/04/28 09:45:36;;;;;;;6.70;6.07;;;;;;;;;;5017147;28;20201;-86
2021/04/28 09:48:01;;;;;;;10.57;6.47;;;;;;;;;;5017449;28;20172;-87
2021/04/28 09:50:27;;;;;;;7.37;6.63;;;;;;;;;;5017349;28;20173;-87
2021/04/28 09:52:52;;;;;;;6.60;6.00;;;;;;;;;;5017995;28;20177;-88
2021/04/28 09:55:18;;;;;;;6.67;6.07;;;;;;;;;;5015933;28;20184;-88
2021/04/28 09:57:45;;;;;;;8.70;6.57;;;;;;;;;;5017268;28;20673;-87
2021/04/28 10:00:14;;;;;;;8.53;6.90;;;;;;;;;;5016002;28;20228;-88
2021/04/28 10:02:41;;;;;;;8.83;6.87;;;;;;;;;;5017425;28;20184;-88
2021/04/28 10:05:26;;;;;;;6.83;6.17;;;;;;;;;;5017747;28;20193;-87
2021/04/28 10:07:52;;;;;;;13.33;8.20;;;;;;;;;;5017186;28;20181;-87
2021/04/28 10:10:19;;;;;;;9.07;7.43;;;;;;;;;;5026587;28;20192;-87
2021/04/28 10:12:44;;;;;;;8.83;7.10;;;;;;;;;;5026809;28;20587;-87
2021/04/28 10:15:10;;;;;;;7.07;5.93;;;;;;;;;;5024947;28;20253;-88
2021/04/28 10:17:35;;;;;;;7.70;6.87;;;;;;;;;;5026657;28;20254;-87
2021/04/28 10:20:02;;;;;;;10.00;7.43;;;;;;;;;;5018315;28;20663;-86
2021/04/28 10:22:28;;;;;;;7.70;6.63;;;;;;;;;;5016813;28;20619;-86
2021/04/28 10:24:54;;;;;;;14.87;7.77;;;;;;;;;;5017067;28;20201;-86
2021/04/28 10:27:20;;;;;;;7.17;6.57;;;;;;;;;;5015484;28;20181;-86
2021/04/28 10:29:46;;;;;;;8.77;7.90;;;;;;;;;;5016134;28;20246;-85
2021/04/28 10:32:12;;;;;;;8.17;7.30;;;;;;;;;;5016209;28;20176;-86
2021/04/28 10:34:59;;;;;;;6.47;5.73;;;;;;;;;;5016584;28;20256;-87
2021/04/28 10:37:29;;;;;;;7.37;6.53;;;;;;;;;;5016212;28;20565;-88
2021/04/28 10:39:54;;;;;;;10.07;6.63;;;;;;;;;;5017020;28;20179;-87
2021/04/28 10:42:23;;;;;;;6.60;6.03;;;;;;;;;;5016696;28;20256;-87
2021/04/28 10:44:50;;;;;;;6.93;5.60;;;;;;;;;;5016600;28;20173;-87
2021/04/28 10:47:28;;;;;;;7.53;6.40;;;;;;;;;;5016357;28;20181;-87
2021/04/28 10:50:01;;;;;;;6.90;6.23;;;;;;;;;;5015926;28;20184;-87
2021/04/28 10:52:33;;;;;;;11.97;10.00;;;;;;;;;;5017044;28;20576;-87
2021/04/28 10:54:59;;;;;;;8.70;7.80;;;;;;;;;;5016338;28;20263;-86
2021/04/28 10:57:33;;;;;;;8.73;7.57;;;;;;;;;;5016567;28;20201;-85
2021/04/28 11:00:00;;;;;;;9.30;7.07;;;;;;;;;;5015773;28;20568;-85
2021/04/28 11:02:47;;;;;;;8.63;7.73;;;;;;;;;;5016062;28;20169;-86
2021/04/28 22:50:35;;;;;;;31.63;23.10;;;;;;;;;;5090059;27;20529;-86
2021/04/28 22:53:00;;;;;;;29.40;21.13;;;;;;;;;;5090353;28;20186;-86
2021/04/28 22:55:26;;;;;;;29.37;21.93;;;;;;;;;;5090204;28;20174;-87
2021/04/28 22:57:51;;;;;;;30.67;22.83;;;;;;;;;;5090167;28;20224;-86
2021/04/28 23:00:18;;;;;;;37.80;27.07;;;;;;;;;;5090479;28;20177;-87
2021/04/28 23:02:43;;;;;;;33.50;22.67;;;;;;;;;;5090559;28;20175;-87
2021/04/28 23:05:09;;;;;;;31.40;21.90;;;;;;;;;;5090222;28;20226;-87
2021/04/28 23:07:35;;;;;;;29.50;20.43;;;;;;;;;;5089862;28;20166;-87
2021/04/28 23:10:00;;;;;;;33.43;21.40;;;;;;;;;;5090123;28;20324;-87
2021/04/28 23:12:25;;;;;;;33.30;21.10;;;;;;;;;;5089839;28;20177;-86
2021/04/28 23:14:51;;;;;;;29.03;20.77;;;;;;;;;;5090100;28;20177;-87
2021/04/28 23:17:18;;;;;;;29.30;20.57;;;;;;;;;;5090022;28;20174;-87
2021/04/28 23:19:43;;;;;;;28.23;20.33;;;;;;;;;;5090288;28;20613;-87
2021/04/28 23:22:09;;;;;;;27.90;20.60;;;;;;;;;;5089862;28;20166;-87
2021/04/28 23:24:34;;;;;;;32.80;21.13;;;;;;;;;;5089754;28;20170;-87
2021/04/28 23:27:00;;;;;;;38.00;21.97;;;;;;;;;;5089785;28;20171;-87
2021/04/28 23:29:25;;;;;;;30.57;21.13;;;;;;;;;;5089672;28;20198;-87
2021/04/28 23:31:50;;;;;;;34.40;22.03;;;;;;;;;;5089354;28;20180;-87
2021/04/28 23:34:16;;;;;;;30.07;21.30;;;;;;;;;;5089579;28;20235;-87
2021/04/28 23:36:41;;;;;;;29.90;20.67;;;;;;;;;;5089384;28;20170;-87
2021/04/28 23:39:06;;;;;;;29.87;19.37;;;;;;;;;;5089084;28;20171;-87
2021/04/28 23:41:32;;;;;;;25.80;19.00;;;;;;;;;;5089451;28;20171;-87
2021/04/28 23:43:57;;;;;;;26.20;18.20;;;;;;;;;;5089394;28;20163;-87
2021/04/28 23:46:22;;;;;;;22.90;16.53;;;;;;;;;;5089746;28;20280;-86
2021/04/28 23:48:48;;;;;;;22.57;17.00;;;;;;;;;;5089327;28;20230;-86
2021/04/28 23:51:13;;;;;;;20.17;14.73;;;;;;;;;;5089351;28;20175;-86
2021/04/28 23:53:39;;;;;;;24.87;16.80;;;;;;;;;;5089027;28;20525;-86
2021/04/28 23:56:05;;;;;;;19.03;15.17;;;;;;;;;;5089322;28;20173;-86
2021/04/28 23:58:30;;;;;;;16.13;13.83;;;;;;;;;;5089398;28;20175;-86
